Time;durP1;ratioP1;P1;durP2;ratioP2;P2;SDS_P1;SDS_P2;PMS_P1;PMS_P2;Temp;Humidity;BMP_temperature;BMP_pressure;BME280_temperature;BME280_humidity;BME280_pressure;Samples;Min_cycle;Max_cycle;Signal;HPM_P1;HPM_P2
2022/07/04 00:02:03;;;;;;;0.30;0.28;;;;;;;;;;5010134;28;20053;-71
2022/07/04 00:04:31;;;;;;;0.22;0.22;;;;;;;;;;5010238;28;20517;-71
2022/07/04 00:07:00;;;;;;;0.00;0.00;;;;;;;;;;5011912;28;20057;-70
2022/07/04 00:09:28;;;;;;;0.17;0.10;;;;;;;;;;5012370;28;20077;-71
2022/07/04 00:11:57;;;;;;;0.98;0.28;;;;;;;;;;5014042;28;20112;-72
2022/07/04 00:14:25;;;;;;;0.10;0.10;;;;;;;;;;5013090;28;20617;-71
2022/07/04 00:16:53;;;;;;;0.20;0.15;;;;;;;;;;5012823;28;20084;-71
2022/07/04 00:19:23;;;;;;;0.22;0.15;;;;;;;;;;5013345;28;20054;-71
2022/07/04 00:21:52;;;;;;;0.13;0.13;;;;;;;;;;5012373;28;20140;-71
2022/07/04 00:24:20;;;;;;;0.10;0.10;;;;;;;;;;5013616;28;20125;-71
2022/07/04 00:26:48;;;;;;;0.20;0.20;;;;;;;;;;5021618;28;20488;-71
2022/07/04 00:29:17;;;;;;;0.38;0.22;;;;;;;;;;5013335;28;20103;-71
2022/07/04 00:31:45;;;;;;;0.13;0.13;;;;;;;;;;5012862;28;20077;-72
2022/07/04 00:34:14;;;;;;;0.17;0.17;;;;;;;;;;5013087;28;20050;-71
2022/07/04 00:36:43;;;;;;;0.22;0.22;;;;;;;;;;5011370;28;20096;-71
2022/07/04 00:39:12;;;;;;;0.20;0.20;;;;;;;;;;5012833;28;20069;-71
2022/07/04 00:41:40;;;;;;;0.00;0.00;;;;;;;;;;5011063;28;20540;-71
2022/07/04 00:44:10;;;;;;;0.10;0.10;;;;;;;;;;5011862;28;20509;-71
2022/07/04 00:46:40;;;;;;;1.27;0.30;;;;;;;;;;5010981;28;20045;-71
2022/07/04 00:49:09;;;;;;;0.20;0.20;;;;;;;;;;5009054;28;20046;-71
2022/07/04 00:51:38;;;;;;;0.30;0.10;;;;;;;;;;5016344;28;20129;-71
2022/07/04 00:54:09;;;;;;;0.47;0.20;;;;;;;;;;5012076;28;20050;-72
2022/07/04 00:56:38;;;;;;;0.22;0.20;;;;;;;;;;5011114;28;20126;-71
2022/07/04 00:59:07;;;;;;;0.20;0.20;;;;;;;;;;5011403;28;20137;-72
2022/07/04 01:01:36;;;;;;;0.20;0.20;;;;;;;;;;5008986;28;20141;-71
2022/07/04 01:04:05;;;;;;;0.20;0.20;;;;;;;;;;5009659;28;20532;-71
2022/07/04 01:06:34;;;;;;;0.40;0.20;;;;;;;;;;5009136;28;20073;-71
2022/07/04 01:09:02;;;;;;;0.10;0.10;;;;;;;;;;5012379;28;20133;-71
2022/07/04 01:11:32;;;;;;;0.17;0.17;;;;;;;;;;5010122;28;20129;-72
2022/07/04 01:14:02;;;;;;;0.20;0.20;;;;;;;;;;5011711;28;20104;-71
2022/07/04 01:16:30;;;;;;;0.00;0.00;;;;;;;;;;5011698;28;20049;-72
2022/07/04 01:18:59;;;;;;;0.22;0.08;;;;;;;;;;5011746;28;20054;-72
2022/07/04 01:21:28;;;;;;;0.20;0.20;;;;;;;;;;5010727;28;20129;-72
2022/07/04 01:23:57;;;;;;;0.20;0.20;;;;;;;;;;5011378;28;20128;-72
2022/07/04 01:26:25;;;;;;;0.10;0.10;;;;;;;;;;5010829;28;20595;-72
2022/07/04 01:28:53;;;;;;;0.40;0.40;;;;;;;;;;5011820;28;20077;-72
2022/07/04 01:31:22;;;;;;;0.17;0.17;;;;;;;;;;5011157;28;20045;-71
2022/07/04 01:33:50;;;;;;;0.40;0.40;;;;;;;;;;5011487;28;20125;-72
2022/07/04 01:36:19;;;;;;;0.10;0.10;;;;;;;;;;5012443;28;20093;-72
2022/07/04 01:38:49;;;;;;;0.52;0.20;;;;;;;;;;5010738;28;20038;-71
2022/07/04 01:41:17;;;;;;;0.20;0.20;;;;;;;;;;5010808;28;20038;-72
2022/07/04 01:43:46;;;;;;;0.00;0.00;;;;;;;;;;5011576;28;20401;-71
2022/07/04 01:46:14;;;;;;;0.08;0.08;;;;;;;;;;5009929;28;20065;-72
2022/07/04 01:48:42;;;;;;;0.10;0.10;;;;;;;;;;5008072;28;20452;-71
2022/07/04 01:51:11;;;;;;;0.85;0.20;;;;;;;;;;5010780;28;20100;-72
2022/07/04 01:53:39;;;;;;;0.10;0.10;;;;;;;;;;5008656;28;20044;-72
2022/07/04 01:56:09;;;;;;;0.35;0.20;;;;;;;;;;5009781;28;20506;-71
2022/07/04 01:58:37;;;;;;;0.20;0.20;;;;;;;;;;5009497;28;20522;-71
2022/07/04 02:03:51;;;;;;;;;;;;;;;;;;5007522;28;20041;-71
2022/07/04 02:06:19;;;;;;;0.10;0.10;;;;;;;;;;5002302;28;19921;-71
2022/07/04 02:14:17;;;;;;;0.03;0.03;;;;;;;;;;5008302;28;20056;-71
2022/07/04 02:16:46;;;;;;;0.10;0.10;;;;;;;;;;5009589;28;20145;-71
2022/07/04 02:19:14;;;;;;;0.20;0.20;;;;;;;;;;5009451;28;20046;-71
2022/07/04 02:21:42;;;;;;;0.43;0.20;;;;;;;;;;5008446;28;20076;-71
2022/07/04 02:24:11;;;;;;;0.00;0.00;;;;;;;;;;5010279;28;20050;-71
2022/07/04 02:26:41;;;;;;;0.30;0.20;;;;;;;;;;5010007;28;20073;-71
2022/07/04 02:29:09;;;;;;;0.00;0.00;;;;;;;;;;5009726;28;20076;-71
2022/07/04 02:31:37;;;;;;;0.10;0.10;;;;;;;;;;5008933;28;20050;-71
2022/07/04 02:34:06;;;;;;;2.17;0.45;;;;;;;;;;5009415;28;20056;-71
2022/07/04 02:36:34;;;;;;;0.90;0.55;;;;;;;;;;5009273;28;20077;-71
2022/07/04 02:39:02;;;;;;;0.50;0.40;;;;;;;;;;5009025;28;20578;-71
2022/07/04 02:41:31;;;;;;;0.43;0.43;;;;;;;;;;5009003;28;20532;-71
2022/07/04 02:44:01;;;;;;;0.10;0.10;;;;;;;;;;5008927;28;20049;-71
2022/07/04 02:46:32;;;;;;;0.05;0.05;;;;;;;;;;5009435;28;20088;-71
2022/07/04 02:49:00;;;;;;;0.30;0.25;;;;;;;;;;5009075;28;20077;-71
2022/07/04 02:51:29;;;;;;;2.45;0.25;;;;;;;;;;5009029;28;20096;-72
2022/07/04 02:53:57;;;;;;;0.20;0.20;;;;;;;;;;5010947;28;20089;-72
2022/07/04 02:56:26;;;;;;;0.00;0.00;;;;;;;;;;5009157;28;20088;-71
2022/07/04 02:58:54;;;;;;;0.10;0.10;;;;;;;;;;5010219;28;20128;-72
2022/07/04 03:01:24;;;;;;;0.10;0.10;;;;;;;;;;5007464;28;20077;-71
2022/07/04 03:03:53;;;;;;;0.25;0.20;;;;;;;;;;5009139;28;20088;-71
2022/07/04 03:06:21;;;;;;;0.10;0.10;;;;;;;;;;5008207;28;20058;-72
2022/07/04 03:08:49;;;;;;;0.20;0.20;;;;;;;;;;5005191;28;20061;-72
2022/07/04 03:11:18;;;;;;;0.10;0.10;;;;;;;;;;5009686;28;20046;-71
2022/07/04 03:13:46;;;;;;;0.10;0.10;;;;;;;;;;5007789;28;20108;-72
2022/07/04 03:16:15;;;;;;;0.57;0.20;;;;;;;;;;5005111;28;20139;-72
2022/07/04 03:18:44;;;;;;;0.10;0.10;;;;;;;;;;5006776;28;20132;-72
2022/07/04 03:21:13;;;;;;;0.38;0.13;;;;;;;;;;5010263;28;20054;-72
2022/07/04 03:23:41;;;;;;;1.00;0.30;;;;;;;;;;5008353;28;20569;-72
2022/07/04 03:26:10;;;;;;;0.30;0.30;;;;;;;;;;5001125;28;20053;-72
2022/07/04 03:28:38;;;;;;;0.20;0.20;;;;;;;;;;5010210;28;20053;-72
2022/07/04 03:31:07;;;;;;;0.30;0.20;;;;;;;;;;5009363;28;20555;-71
2022/07/04 03:33:35;;;;;;;0.22;0.20;;;;;;;;;;5006027;28;21440;-71
2022/07/04 03:36:07;;;;;;;0.22;0.22;;;;;;;;;;5008863;28;20177;-71
2022/07/04 03:38:35;;;;;;;0.00;0.00;;;;;;;;;;5007857;28;20692;-71
2022/07/04 03:41:06;;;;;;;0.05;0.05;;;;;;;;;;5010547;28;20081;-71
2022/07/04 03:43:35;;;;;;;0.15;0.15;;;;;;;;;;5009132;28;20077;-71
2022/07/04 03:46:06;;;;;;;0.13;0.13;;;;;;;;;;5010575;28;20056;-71
2022/07/04 03:48:35;;;;;;;0.00;0.00;;;;;;;;;;5000211;28;20049;-72
2022/07/04 03:51:08;;;;;;;0.20;0.20;;;;;;;;;;5012914;28;20050;-71
2022/07/04 03:53:36;;;;;;;0.10;0.10;;;;;;;;;;5011798;28;20074;-73
2022/07/04 03:56:08;;;;;;;1.20;0.20;;;;;;;;;;5011746;28;20140;-72
2022/07/04 03:58:36;;;;;;;0.10;0.10;;;;;;;;;;5012494;28;20120;-73
2022/07/04 04:01:09;;;;;;;0.13;0.13;;;;;;;;;;5011001;28;20137;-72
2022/07/04 04:06:24;;;;;;;0.22;0.22;;;;;;;;;;5011103;28;20078;-71
2022/07/04 04:08:52;;;;;;;0.10;0.10;;;;;;;;;;5007611;28;20089;-72
2022/07/04 04:11:21;;;;;;;0.15;0.10;;;;;;;;;;5009347;28;20077;-72
2022/07/04 04:13:49;;;;;;;0.52;0.50;;;;;;;;;;5012956;28;20066;-72
2022/07/04 04:16:18;;;;;;;0.10;0.10;;;;;;;;;;5008045;28;20498;-72
2022/07/04 04:18:46;;;;;;;0.10;0.10;;;;;;;;;;5010758;28;20046;-72
2022/07/04 04:21:14;;;;;;;0.13;0.10;;;;;;;;;;5011050;28;20553;-71
2022/07/04 04:23:44;;;;;;;0.25;0.25;;;;;;;;;;5008590;28;20169;-71
2022/07/04 04:26:12;;;;;;;0.15;0.10;;;;;;;;;;5004690;28;20247;-72
2022/07/04 04:28:41;;;;;;;0.00;0.00;;;;;;;;;;5012629;28;20077;-72
2022/07/04 04:31:09;;;;;;;0.30;0.30;;;;;;;;;;5008800;28;20490;-72
2022/07/04 04:33:38;;;;;;;0.25;0.25;;;;;;;;;;5013085;28;20050;-71
2022/07/04 04:36:09;;;;;;;0.28;0.28;;;;;;;;;;5009089;28;20121;-71
2022/07/04 04:38:37;;;;;;;0.10;0.10;;;;;;;;;;5007845;28;20144;-71
2022/07/04 04:41:10;;;;;;;0.10;0.10;;;;;;;;;;5010816;28;20080;-72
2022/07/04 04:43:38;;;;;;;0.20;0.15;;;;;;;;;;5013695;28;20132;-71
2022/07/04 04:46:07;;;;;;;0.10;0.10;;;;;;;;;;5009252;28;20212;-71
2022/07/04 04:48:35;;;;;;;0.00;0.00;;;;;;;;;;5010060;28;20371;-72
2022/07/04 04:51:07;;;;;;;0.00;0.00;;;;;;;;;;5011458;28;20050;-71
2022/07/04 04:53:36;;;;;;;0.00;0.00;;;;;;;;;;5009931;28;20067;-72
2022/07/04 04:56:08;;;;;;;0.20;0.20;;;;;;;;;;5010996;28;20038;-72
2022/07/04 04:58:37;;;;;;;2.05;0.47;;;;;;;;;;5010667;28;20330;-72
2022/07/04 05:01:08;;;;;;;0.30;0.30;;;;;;;;;;5012036;28;20137;-72
2022/07/04 05:03:57;;;;;;;0.10;0.10;;;;;;;;;;5005747;28;20136;-71
2022/07/04 05:06:25;;;;;;;0.10;0.05;;;;;;;;;;5006097;28;20053;-71
2022/07/04 05:08:54;;;;;;;0.22;0.22;;;;;;;;;;5003309;28;20515;-71
2022/07/04 05:11:22;;;;;;;0.00;0.00;;;;;;;;;;5005515;28;20118;-72
2022/07/04 05:13:52;;;;;;;0.38;0.30;;;;;;;;;;5000984;28;20062;-72
2022/07/04 05:16:20;;;;;;;0.28;0.28;;;;;;;;;;5007948;28;20592;-72
2022/07/04 05:18:49;;;;;;;0.55;0.25;;;;;;;;;;5007010;28;20437;-72
2022/07/04 05:21:17;;;;;;;0.30;0.30;;;;;;;;;;5005827;28;20121;-72
2022/07/04 05:23:46;;;;;;;0.20;0.20;;;;;;;;;;5006215;28;20081;-72
2022/07/04 05:26:14;;;;;;;0.10;0.10;;;;;;;;;;5001225;28;20115;-72
2022/07/04 05:28:42;;;;;;;0.35;0.22;;;;;;;;;;5006716;28;20133;-72
2022/07/04 05:31:12;;;;;;;0.10;0.10;;;;;;;;;;5007854;28;20513;-72
2022/07/04 05:33:41;;;;;;;0.55;0.25;;;;;;;;;;5008396;28;20160;-72
2022/07/04 05:36:09;;;;;;;0.10;0.10;;;;;;;;;;5004473;28;20070;-72
2022/07/04 05:38:38;;;;;;;0.35;0.20;;;;;;;;;;5002956;28;20095;-72
2022/07/04 05:41:09;;;;;;;0.38;0.38;;;;;;;;;;5012042;28;20398;-72
2022/07/04 05:43:37;;;;;;;0.20;0.20;;;;;;;;;;5012496;28;20042;-72
2022/07/04 05:46:09;;;;;;;0.10;0.10;;;;;;;;;;5012571;28;20081;-72
2022/07/04 05:48:38;;;;;;;0.20;0.20;;;;;;;;;;5011746;28;20077;-72
2022/07/04 05:51:07;;;;;;;0.20;0.20;;;;;;;;;;5009646;28;20138;-72
2022/07/04 05:53:36;;;;;;;0.30;0.15;;;;;;;;;;5011065;28;20046;-72
2022/07/04 05:56:08;;;;;;;0.40;0.40;;;;;;;;;;5010303;28;20084;-72
2022/07/04 05:58:37;;;;;;;0.80;0.30;;;;;;;;;;5010799;28;20108;-72
2022/07/04 06:01:08;;;;;;;0.10;0.10;;;;;;;;;;5012012;28;20077;-72
2022/07/04 06:03:38;;;;;;;1.58;0.20;;;;;;;;;;5012496;28;20050;-72
2022/07/04 06:06:10;;;;;;;0.20;0.20;;;;;;;;;;5012145;28;20185;-73
2022/07/04 06:08:38;;;;;;;0.73;0.73;;;;;;;;;;5006874;28;20046;-72
2022/07/04 06:11:09;;;;;;;0.52;0.50;;;;;;;;;;5011682;28;20092;-72
2022/07/04 06:13:38;;;;;;;0.65;0.20;;;;;;;;;;5012176;28;20086;-72
2022/07/04 06:16:09;;;;;;;0.20;0.20;;;;;;;;;;5011081;28;20096;-73
2022/07/04 06:18:39;;;;;;;0.10;0.10;;;;;;;;;;5011575;28;20053;-72
2022/07/04 06:21:07;;;;;;;0.63;0.50;;;;;;;;;;5011849;28;20054;-72
2022/07/04 06:23:36;;;;;;;0.10;0.10;;;;;;;;;;5002483;28;20038;-71
2022/07/04 06:26:09;;;;;;;0.47;0.10;;;;;;;;;;5011949;28;20422;-71
2022/07/04 06:28:37;;;;;;;0.30;0.22;;;;;;;;;;5003070;28;20588;-72
2022/07/04 06:31:15;;;;;;;0.20;0.20;;;;;;;;;;5011122;28;20125;-72
2022/07/04 06:36:31;;;;;;;0.20;0.17;;;;;;;;;;5009953;28;20133;-71
2022/07/04 06:39:00;;;;;;;0.20;0.20;;;;;;;;;;5007909;28;20073;-72
2022/07/04 06:41:28;;;;;;;0.60;0.38;;;;;;;;;;5010117;28;20509;-72
2022/07/04 06:43:57;;;;;;;2.08;0.30;;;;;;;;;;5009622;28;20065;-72
2022/07/04 06:46:25;;;;;;;0.10;0.10;;;;;;;;;;5005082;28;20042;-71
2022/07/04 06:48:55;;;;;;;0.30;0.30;;;;;;;;;;5003848;28;20076;-71
2022/07/04 06:51:24;;;;;;;0.10;0.10;;;;;;;;;;4997183;28;20090;-71
2022/07/04 06:53:53;;;;;;;0.15;0.15;;;;;;;;;;4998771;28;20524;-72
2022/07/04 06:56:21;;;;;;;0.00;0.00;;;;;;;;;;4994470;28;20927;-72
2022/07/04 06:58:50;;;;;;;0.10;0.10;;;;;;;;;;5006664;28;20193;-72
2022/07/04 07:01:18;;;;;;;0.00;0.00;;;;;;;;;;4997962;28;20077;-73
2022/07/04 07:03:47;;;;;;;0.00;0.00;;;;;;;;;;5001658;28;20393;-72
2022/07/04 07:06:17;;;;;;;0.32;0.32;;;;;;;;;;4995423;28;20047;-75
2022/07/04 07:08:46;;;;;;;0.98;0.93;;;;;;;;;;4998917;28;20470;-71
2022/07/04 07:11:16;;;;;;;0.00;0.00;;;;;;;;;;4998846;28;20047;-70
2022/07/04 07:13:45;;;;;;;0.57;0.57;;;;;;;;;;5007548;28;20073;-72
2022/07/04 07:16:14;;;;;;;0.35;0.20;;;;;;;;;;5000177;28;20397;-73
2022/07/04 07:18:43;;;;;;;0.10;0.10;;;;;;;;;;5003000;28;20046;-73
2022/07/04 07:21:11;;;;;;;0.17;0.10;;;;;;;;;;5009185;28;20107;-72
2022/07/04 07:23:41;;;;;;;0.38;0.35;;;;;;;;;;5005285;28;20050;-72
2022/07/04 07:26:11;;;;;;;0.10;0.10;;;;;;;;;;5011429;28;20045;-70
2022/07/04 07:28:40;;;;;;;0.28;0.17;;;;;;;;;;5013794;28;20482;-71
2022/07/04 07:31:08;;;;;;;0.10;0.10;;;;;;;;;;5014477;28;20092;-71
2022/07/04 07:33:37;;;;;;;0.05;0.05;;;;;;;;;;5013324;28;20038;-71
2022/07/04 07:36:08;;;;;;;0.30;0.30;;;;;;;;;;5014728;28;20076;-71
2022/07/04 07:38:37;;;;;;;0.17;0.10;;;;;;;;;;5013739;28;20105;-72
2022/07/04 07:41:11;;;;;;;0.35;0.28;;;;;;;;;;5013735;28;20050;-72
2022/07/04 07:43:39;;;;;;;0.47;0.10;;;;;;;;;;5014283;28;20053;-72
2022/07/04 07:46:09;;;;;;;0.10;0.10;;;;;;;;;;4995098;28;20459;-72
2022/07/04 07:48:38;;;;;;;0.30;0.20;;;;;;;;;;5005194;28;20477;-71
2022/07/04 07:51:06;;;;;;;0.10;0.10;;;;;;;;;;5013989;28;20046;-72
2022/07/04 07:53:35;;;;;;;0.08;0.08;;;;;;;;;;5015174;28;20073;-72
2022/07/04 07:56:25;;;;;;;0.20;0.10;;;;;;;;;;5013454;28;20056;-72
2022/07/04 07:58:53;;;;;;;0.10;0.10;;;;;;;;;;5014005;28;20506;-72
2022/07/04 08:01:22;;;;;;;0.10;0.10;;;;;;;;;;5011968;28;20768;-72
2022/07/04 08:06:40;;;;;;;0.05;0.05;;;;;;;;;;5013973;28;20072;-73
2022/07/04 08:09:29;;;;;;;0.00;0.00;;;;;;;;;;5014899;28;20054;-73
2022/07/04 08:11:59;;;;;;;0.20;0.20;;;;;;;;;;5013952;28;20540;-73
2022/07/04 08:14:28;;;;;;;0.65;0.55;;;;;;;;;;5014467;28;20127;-73
2022/07/04 08:16:57;;;;;;;0.20;0.20;;;;;;;;;;5014048;28;20131;-73
2022/07/04 08:19:26;;;;;;;1.98;0.85;;;;;;;;;;5014367;28;20401;-72
2022/07/04 08:21:55;;;;;;;0.20;0.20;;;;;;;;;;5011961;28;20108;-72
2022/07/04 08:24:45;;;;;;;0.00;0.00;;;;;;;;;;5014338;28;20482;-73
2022/07/04 08:27:15;;;;;;;0.00;0.00;;;;;;;;;;5012535;28;20054;-73
2022/07/04 08:29:44;;;;;;;3.35;0.20;;;;;;;;;;5012781;28;20422;-73
2022/07/04 08:32:13;;;;;;;0.30;0.10;;;;;;;;;;5006190;28;20146;-73
2022/07/04 08:34:42;;;;;;;0.13;0.13;;;;;;;;;;5012789;28;20045;-73
2022/07/04 08:37:11;;;;;;;0.00;0.00;;;;;;;;;;5011291;28;20107;-73
2022/07/04 08:39:40;;;;;;;0.63;0.63;;;;;;;;;;5013672;28;20056;-73
2022/07/04 08:42:14;;;;;;;0.00;0.00;;;;;;;;;;5011625;28;20049;-72
2022/07/04 08:44:45;;;;;;;0.10;0.10;;;;;;;;;;5013257;28;20050;-72
2022/07/04 08:47:18;;;;;;;0.00;0.00;;;;;;;;;;5011967;28;20088;-72
2022/07/04 08:49:50;;;;;;;0.00;0.00;;;;;;;;;;5012654;28;20041;-71
2022/07/04 08:52:26;;;;;;;0.05;0.00;;;;;;;;;;5011100;28;20092;-72
2022/07/04 09:00:34;;;;;;;0.08;0.08;;;;;;;;;;5008647;28;20056;-72
2022/07/04 09:03:04;;;;;;;0.10;0.10;;;;;;;;;;5011410;28;20437;-73
2022/07/04 09:05:33;;;;;;;0.00;0.00;;;;;;;;;;5013073;28;20401;-72
2022/07/04 09:08:02;;;;;;;0.00;0.00;;;;;;;;;;5007086;28;20054;-72
2022/07/04 09:10:30;;;;;;;0.10;0.10;;;;;;;;;;5009422;28;20092;-72
2022/07/04 09:12:59;;;;;;;0.10;0.10;;;;;;;;;;4998924;28;20081;-72
2022/07/04 09:15:40;;;;;;;0.20;0.20;;;;;;;;;;5012396;28;20560;-72
2022/07/04 09:18:20;;;;;;;0.10;0.10;;;;;;;;;;5007599;28;20081;-72
2022/07/04 09:20:48;;;;;;;0.00;0.00;;;;;;;;;;5012044;28;20054;-72
2022/07/04 09:23:20;;;;;;;0.08;0.08;;;;;;;;;;5011087;28;20061;-73
2022/07/04 09:25:49;;;;;;;0.00;0.00;;;;;;;;;;5011826;28;20562;-72
2022/07/04 09:28:30;;;;;;;0.00;0.00;;;;;;;;;;5007665;28;20053;-71
2022/07/04 09:31:00;;;;;;;0.10;0.10;;;;;;;;;;5011108;28;20082;-72
2022/07/04 09:33:44;;;;;;;0.20;0.20;;;;;;;;;;5011689;28;20405;-72
2022/07/04 09:36:13;;;;;;;0.00;0.00;;;;;;;;;;5012569;28;20116;-71
2022/07/04 09:38:41;;;;;;;0.25;0.10;;;;;;;;;;5011261;28;20128;-72
2022/07/04 09:41:25;;;;;;;0.00;0.00;;;;;;;;;;5001416;28;20105;-71
2022/07/04 09:44:01;;;;;;;1.30;0.47;;;;;;;;;;5021088;28;20053;-71
2022/07/04 09:46:31;;;;;;;0.32;0.25;;;;;;;;;;5011273;28;20572;-72
2022/07/04 09:48:59;;;;;;;0.03;0.00;;;;;;;;;;5012564;28;20054;-71
2022/07/04 09:51:39;;;;;;;0.00;0.00;;;;;;;;;;5005297;28;20185;-71
2022/07/04 09:54:14;;;;;;;0.10;0.10;;;;;;;;;;5011762;28;20064;-72
2022/07/04 09:56:43;;;;;;;0.00;0.00;;;;;;;;;;5011948;28;20060;-72
2022/07/04 09:59:12;;;;;;;0.05;0.05;;;;;;;;;;5011981;28;20053;-71
2022/07/04 10:01:42;;;;;;;0.00;0.00;;;;;;;;;;5010711;28;20418;-71
2022/07/04 10:04:13;;;;;;;0.00;0.00;;;;;;;;;;5006254;28;20050;-73
2022/07/04 10:06:42;;;;;;;0.00;0.00;;;;;;;;;;5009127;28;20548;-71
2022/07/04 10:09:12;;;;;;;0.15;0.15;;;;;;;;;;5009676;28;20042;-72
2022/07/04 10:11:41;;;;;;;0.20;0.20;;;;;;;;;;5006564;28;20478;-71
2022/07/04 10:14:11;;;;;;;0.00;0.00;;;;;;;;;;5003361;28;20046;-72
2022/07/04 10:16:40;;;;;;;0.22;0.10;;;;;;;;;;4994908;28;20450;-71
2022/07/04 10:19:12;;;;;;;0.10;0.10;;;;;;;;;;5004399;28;20529;-72
2022/07/04 10:21:41;;;;;;;0.10;0.10;;;;;;;;;;5010010;28;20054;-72
2022/07/04 10:24:09;;;;;;;0.03;0.03;;;;;;;;;;5010355;28;20050;-71
2022/07/04 10:26:38;;;;;;;0.10;0.10;;;;;;;;;;5006911;28;20105;-72
2022/07/04 10:29:06;;;;;;;0.20;0.10;;;;;;;;;;5010062;28;20037;-72
2022/07/04 10:31:35;;;;;;;0.10;0.10;;;;;;;;;;5001800;28;20054;-71
2022/07/04 10:34:04;;;;;;;1.13;0.38;;;;;;;;;;5009790;28;20042;-71
2022/07/04 10:36:35;;;;;;;0.05;0.05;;;;;;;;;;5003877;28;20104;-71
2022/07/04 10:39:05;;;;;;;0.00;0.00;;;;;;;;;;4999934;28;20050;-72
2022/07/04 10:41:33;;;;;;;0.00;0.00;;;;;;;;;;5002397;28;20050;-72
2022/07/04 10:44:06;;;;;;;0.10;0.10;;;;;;;;;;5010354;28;20085;-71
2022/07/04 10:46:35;;;;;;;0.17;0.10;;;;;;;;;;5006109;28;20053;-71
2022/07/04 10:49:05;;;;;;;0.13;0.00;;;;;;;;;;5008788;28;20137;-72
2022/07/04 10:51:39;;;;;;;0.30;0.30;;;;;;;;;;5006201;28;20046;-72
2022/07/04 10:54:09;;;;;;;0.05;0.05;;;;;;;;;;5008320;28;20045;-73
2022/07/04 10:56:45;;;;;;;0.00;0.00;;;;;;;;;;5002188;28;20108;-71
2022/07/04 10:59:21;;;;;;;0.10;0.10;;;;;;;;;;4999510;28;20050;-71
2022/07/04 11:01:50;;;;;;;0.10;0.10;;;;;;;;;;5001837;28;20092;-72
2022/07/04 11:05:00;;;;;;;0.75;0.47;;;;;;;;;;5004752;28;20050;-71
2022/07/04 11:07:49;;;;;;;1.08;0.10;;;;;;;;;;5007512;28;20058;-71
2022/07/04 11:10:23;;;;;;;0.20;0.20;;;;;;;;;;5004311;28;20080;-71
2022/07/04 11:13:07;;;;;;;0.00;0.00;;;;;;;;;;5004790;28;20112;-71
2022/07/04 11:15:54;;;;;;;0.28;0.10;;;;;;;;;;5008022;28;20073;-72
2022/07/04 11:18:23;;;;;;;0.55;0.55;;;;;;;;;;4996453;28;20053;-72
2022/07/04 11:20:51;;;;;;;0.32;0.30;;;;;;;;;;5009337;28;20088;-71
2022/07/04 11:23:20;;;;;;;0.00;0.00;;;;;;;;;;5007734;28;20081;-72
2022/07/04 11:25:53;;;;;;;0.25;0.05;;;;;;;;;;5005450;28;20125;-72
2022/07/04 11:28:21;;;;;;;0.10;0.10;;;;;;;;;;5009904;28;20050;-71
2022/07/04 11:31:10;;;;;;;1.00;0.10;;;;;;;;;;5006489;28;20045;-72
2022/07/04 11:33:41;;;;;;;0.00;0.00;;;;;;;;;;5004585;28;20082;-73
2022/07/04 11:36:11;;;;;;;0.00;0.00;;;;;;;;;;5009168;28;20100;-71
2022/07/04 11:38:45;;;;;;;0.08;0.08;;;;;;;;;;4999928;28;20081;-72
2022/07/04 11:46:50;;;;;;;0.00;0.00;;;;;;;;;;5010173;28;20057;-71
2022/07/04 11:49:18;;;;;;;0.10;0.10;;;;;;;;;;5003610;28;20058;-72
2022/07/04 11:51:49;;;;;;;0.13;0.03;;;;;;;;;;5008480;28;20037;-71
2022/07/04 11:54:18;;;;;;;0.17;0.17;;;;;;;;;;5003663;28;20096;-72
2022/07/04 11:57:12;;;;;;;0.10;0.10;;;;;;;;;;5000359;28;20128;-73
2022/07/04 11:59:40;;;;;;;0.10;0.10;;;;;;;;;;5007778;28;20100;-71
2022/07/04 12:02:13;;;;;;;0.10;0.10;;;;;;;;;;4998133;28;20514;-71
2022/07/04 12:04:42;;;;;;;0.00;0.00;;;;;;;;;;4995837;28;20089;-71
2022/07/04 12:07:11;;;;;;;0.10;0.10;;;;;;;;;;5005192;28;20045;-71
2022/07/04 12:09:40;;;;;;;0.20;0.20;;;;;;;;;;5006646;28;20046;-71
2022/07/04 12:12:09;;;;;;;0.10;0.10;;;;;;;;;;4999865;28;20057;-71
2022/07/04 12:14:39;;;;;;;0.03;0.03;;;;;;;;;;5007732;28;20046;-71
2022/07/04 12:17:12;;;;;;;0.10;0.10;;;;;;;;;;5013287;28;20050;-71
2022/07/04 12:19:50;;;;;;;0.10;0.10;;;;;;;;;;5011990;28;20074;-71
2022/07/04 12:22:26;;;;;;;0.00;0.00;;;;;;;;;;5012993;28;20073;-71
2022/07/04 12:24:54;;;;;;;0.00;0.00;;;;;;;;;;5009258;28;20058;-71
2022/07/04 12:27:24;;;;;;;0.15;0.15;;;;;;;;;;5007139;28;20046;-71
2022/07/04 12:29:55;;;;;;;0.50;0.40;;;;;;;;;;5010990;28;20041;-71
2022/07/04 12:32:23;;;;;;;0.20;0.20;;;;;;;;;;5012809;28;20046;-70
2022/07/04 12:34:52;;;;;;;0.15;0.15;;;;;;;;;;5010652;28;20053;-71
2022/07/04 12:37:21;;;;;;;0.20;0.20;;;;;;;;;;5010844;28;20112;-71
2022/07/04 12:39:49;;;;;;;0.10;0.10;;;;;;;;;;5008570;28;20065;-71
2022/07/04 12:42:19;;;;;;;0.32;0.17;;;;;;;;;;5011390;28;20092;-71
2022/07/04 12:44:49;;;;;;;0.10;0.10;;;;;;;;;;5011975;28;20068;-71
2022/07/04 12:47:19;;;;;;;0.22;0.20;;;;;;;;;;5002638;28;20074;-71
2022/07/04 12:50:08;;;;;;;0.05;0.03;;;;;;;;;;5008747;28;20053;-72
2022/07/04 12:52:36;;;;;;;0.22;0.22;;;;;;;;;;5012876;28;20053;-71
2022/07/04 12:55:06;;;;;;;0.28;0.28;;;;;;;;;;5011411;28;20082;-72
2022/07/04 12:57:35;;;;;;;0.17;0.17;;;;;;;;;;5009214;28;20057;-71
2022/07/04 13:00:04;;;;;;;0.75;0.13;;;;;;;;;;4998814;28;20145;-71
2022/07/04 13:02:54;;;;;;;0.10;0.05;;;;;;;;;;5006514;28;20050;-71
2022/07/04 13:05:23;;;;;;;0.55;0.10;;;;;;;;;;5012572;28;20327;-71
2022/07/04 13:07:51;;;;;;;0.08;0.08;;;;;;;;;;5011646;28;20054;-71
2022/07/04 13:10:20;;;;;;;0.00;0.00;;;;;;;;;;5006825;28;20062;-71
2022/07/04 13:12:49;;;;;;;0.28;0.28;;;;;;;;;;5007847;28;20099;-71
2022/07/04 13:15:17;;;;;;;0.00;0.00;;;;;;;;;;4964337;28;20047;-71
2022/07/04 13:17:46;;;;;;;0.28;0.28;;;;;;;;;;4964575;28;20050;-71
2022/07/04 13:20:16;;;;;;;0.52;0.35;;;;;;;;;;4967315;28;20047;-71
2022/07/04 13:22:45;;;;;;;0.15;0.15;;;;;;;;;;4971147;28;20105;-71
2022/07/04 13:25:13;;;;;;;0.10;0.10;;;;;;;;;;4974014;28;20051;-71
2022/07/04 13:27:42;;;;;;;0.00;0.00;;;;;;;;;;4969986;28;20066;-70
2022/07/04 13:30:11;;;;;;;0.40;0.25;;;;;;;;;;4971363;28;20038;-71
2022/07/04 13:32:40;;;;;;;0.10;0.10;;;;;;;;;;4959769;28;20047;-71
2022/07/04 13:35:09;;;;;;;0.10;0.10;;;;;;;;;;4957264;28;20066;-71
2022/07/04 13:37:39;;;;;;;0.17;0.17;;;;;;;;;;4969638;28;20059;-71
2022/07/04 13:40:08;;;;;;;0.10;0.10;;;;;;;;;;4965921;28;20082;-71
2022/07/04 13:45:23;;;;;;;0.20;0.20;;;;;;;;;;4962125;28;20055;-71
2022/07/04 13:47:52;;;;;;;0.13;0.10;;;;;;;;;;4969480;28;20059;-71
2022/07/04 13:50:21;;;;;;;0.10;0.10;;;;;;;;;;4972563;28;20479;-71
2022/07/04 13:52:53;;;;;;;0.30;0.30;;;;;;;;;;4956431;28;20506;-71
2022/07/04 13:55:21;;;;;;;0.10;0.10;;;;;;;;;;4971540;28;20062;-70
2022/07/04 13:57:50;;;;;;;0.15;0.15;;;;;;;;;;4970167;28;20105;-71
2022/07/04 14:00:18;;;;;;;0.20;0.20;;;;;;;;;;4972058;28;20105;-71
2022/07/04 14:02:47;;;;;;;0.70;0.15;;;;;;;;;;4964532;28;20052;-71
2022/07/04 14:05:16;;;;;;;0.10;0.10;;;;;;;;;;4963644;28;20086;-70
2022/07/04 14:07:44;;;;;;;0.10;0.10;;;;;;;;;;4972519;28;20054;-71
2022/07/04 14:10:14;;;;;;;0.22;0.20;;;;;;;;;;4973386;28;20062;-71
2022/07/04 14:12:42;;;;;;;3.53;0.28;;;;;;;;;;4970816;28;20050;-70
2022/07/04 14:15:11;;;;;;;0.10;0.10;;;;;;;;;;5003074;28;20093;-70
2022/07/04 14:17:40;;;;;;;0.10;0.10;;;;;;;;;;5008334;28;20037;-71
2022/07/04 14:20:10;;;;;;;0.25;0.22;;;;;;;;;;5011321;28;20085;-71
2022/07/04 14:22:39;;;;;;;1.00;0.43;;;;;;;;;;5009489;28;20493;-71
2022/07/04 14:25:08;;;;;;;0.20;0.20;;;;;;;;;;5011764;28;20501;-71
2022/07/04 14:27:38;;;;;;;0.08;0.05;;;;;;;;;;5001320;28;20065;-71
2022/07/04 14:30:07;;;;;;;0.03;0.00;;;;;;;;;;5011225;28;20065;-70
2022/07/04 14:32:36;;;;;;;0.10;0.10;;;;;;;;;;5010577;28;20058;-71
2022/07/04 14:35:05;;;;;;;0.10;0.10;;;;;;;;;;5010504;28;20101;-71
2022/07/04 14:37:39;;;;;;;0.20;0.10;;;;;;;;;;5003798;28;20073;-71
2022/07/04 14:40:08;;;;;;;0.00;0.00;;;;;;;;;;5009899;28;20050;-71
2022/07/04 14:42:37;;;;;;;0.38;0.10;;;;;;;;;;5009655;28;20083;-71
2022/07/04 14:45:07;;;;;;;0.40;0.30;;;;;;;;;;5009601;28;20422;-71
2022/07/04 14:47:35;;;;;;;0.57;0.47;;;;;;;;;;5006996;28;20050;-70
2022/07/04 14:50:04;;;;;;;0.00;0.00;;;;;;;;;;5002654;28;20380;-71
2022/07/04 14:52:33;;;;;;;0.13;0.13;;;;;;;;;;5008998;28;20044;-70
2022/07/04 14:55:02;;;;;;;0.00;0.00;;;;;;;;;;5006021;28;20132;-70
2022/07/04 14:57:30;;;;;;;4.55;0.20;;;;;;;;;;5005421;28;20046;-70
2022/07/04 15:00:00;;;;;;;0.20;0.10;;;;;;;;;;5002955;28;20495;-71
2022/07/04 15:02:29;;;;;;;0.10;0.10;;;;;;;;;;5008964;28;20132;-71
2022/07/04 15:04:57;;;;;;;0.20;0.10;;;;;;;;;;5010067;28;20091;-71
2022/07/04 15:07:26;;;;;;;1.08;0.20;;;;;;;;;;5007849;28;20137;-71
2022/07/04 15:09:55;;;;;;;0.25;0.10;;;;;;;;;;5011400;28;20526;-70
2022/07/04 15:12:23;;;;;;;0.10;0.10;;;;;;;;;;5003832;28;20486;-72
2022/07/04 15:14:52;;;;;;;0.10;0.10;;;;;;;;;;5006535;28;20100;-71
2022/07/04 15:17:21;;;;;;;0.00;0.00;;;;;;;;;;5010006;28;20058;-72
2022/07/04 15:25:51;;;;;;;0.10;0.10;;;;;;;;;;5115187;27;20116;-69
2022/07/04 15:28:20;;;;;;;0.10;0.10;;;;;;;;;;5071562;28;20045;-69
2022/07/04 15:30:48;;;;;;;0.10;0.10;;;;;;;;;;5062820;28;20045;-69
2022/07/04 15:33:17;;;;;;;1.08;0.32;;;;;;;;;;5065096;28;20068;-68
2022/07/04 15:35:46;;;;;;;0.90;0.50;;;;;;;;;;5058614;28;20052;-68
2022/07/04 15:38:14;;;;;;;0.20;0.20;;;;;;;;;;5062811;28;20116;-69